Time;durP1;ratioP1;P1;durP2;ratioP2;P2;SDS_P1;SDS_P2;PMS_P1;PMS_P2;Temp;Humidity;BMP_temperature;BMP_pressure;BME280_temperature;BME280_humidity;BME280_pressure;Samples;Min_cycle;Max_cycle;Signal;HPM_P1;HPM_P2
2024/01/17 00:00:42;;;;;;;32.97;12.40;;;;;;;-1.00;61.80;99418.31;6213067;22;96522;-82
2024/01/17 00:03:08;;;;;;;30.33;12.70;;;;;;;-0.80;61.38;99451.78;6214711;22;96683;-81
2024/01/17 00:05:34;;;;;;;32.33;12.00;;;;;;;-0.82;61.29;99425.16;6187001;22;97708;-81
2024/01/17 00:07:59;;;;;;;28.80;12.73;;;;;;;-0.73;61.04;99417.41;6212441;22;97533;-81
2024/01/17 00:10:25;;;;;;;31.50;12.20;;;;;;;-0.79;61.40;99420.84;6186500;22;96616;-81
2024/01/17 00:12:50;;;;;;;36.30;14.27;;;;;;;-0.97;61.33;99408.00;6187024;22;96932;-81
2024/01/17 00:15:18;;;;;;;30.93;13.03;;;;;;;-0.91;61.34;99416.56;6161509;22;101302;-82
2024/01/17 00:17:44;;;;;;;26.60;12.03;;;;;;;-0.90;62.02;99420.03;6187341;22;97856;-81
2024/01/17 00:20:09;;;;;;;26.83;12.83;;;;;;;-0.78;61.98;99404.53;6187043;22;96476;-81
2024/01/17 00:22:35;;;;;;;29.03;10.50;;;;;;;-1.06;61.83;99372.81;6161916;22;96871;-81
2024/01/17 00:25:01;;;;;;;26.43;11.80;;;;;;;-0.98;61.60;99373.66;6212471;22;97673;-81
2024/01/17 00:27:26;;;;;;;25.43;12.20;;;;;;;-0.79;61.52;99404.53;6214166;22;97272;-84
2024/01/17 00:29:57;;;;;;;28.73;13.23;;;;;;;-0.99;61.43;99395.16;6188229;22;96617;-82
2024/01/17 00:32:23;;;;;;;30.40;11.63;;;;;;;-0.88;61.08;99422.59;6189557;22;96715;-81
2024/01/17 00:34:49;;;;;;;26.40;12.37;;;;;;;-0.85;61.55;99402.81;6187452;22;100360;-81
2024/01/17 00:37:14;;;;;;;26.63;12.73;;;;;;;-0.84;60.97;99377.91;6162559;22;101612;-81
2024/01/17 00:39:40;;;;;;;31.80;13.30;;;;;;;-0.61;60.96;99406.19;6214046;22;96557;-81
2024/01/17 00:42:06;;;;;;;33.77;13.97;;;;;;;-0.57;60.66;99403.59;6188419;22;96790;-81
2024/01/17 00:44:32;;;;;;;33.23;13.53;;;;;;;-0.54;59.95;99400.16;6213767;22;96633;-81
2024/01/17 00:46:57;;;;;;;31.33;13.50;;;;;;;-0.51;59.66;99398.41;6188188;22;97361;-81
2024/01/17 00:49:23;;;;;;;28.63;14.30;;;;;;;-0.43;60.04;99395.81;6162985;22;96528;-81
2024/01/17 00:51:48;;;;;;;34.37;14.43;;;;;;;-0.51;59.42;99401.00;6163623;22;96891;-81
2024/01/17 00:54:14;;;;;;;35.50;14.57;;;;;;;-0.49;59.25;99383.81;6162469;22;101031;-80
2024/01/17 00:56:39;;;;;;;30.00;12.97;;;;;;;-0.56;58.81;99389.00;6162639;22;101025;-81
2024/01/17 00:59:05;;;;;;;37.03;15.60;;;;;;;-0.56;58.66;99412.19;6213258;22;96466;-81
2024/01/17 01:01:30;;;;;;;32.00;14.50;;;;;;;-0.69;59.56;99390.75;6188279;22;96882;-81
2024/01/17 01:03:56;;;;;;;36.43;14.40;;;;;;;-0.64;59.08;99388.16;6187995;22;101190;-80
2024/01/17 01:06:22;;;;;;;33.10;14.57;;;;;;;-0.53;58.68;99386.41;6187535;22;99573;-83
2024/01/17 01:08:47;;;;;;;34.00;15.07;;;;;;;-0.62;58.91;99386.44;6188497;22;96533;-81
2024/01/17 01:11:13;;;;;;;31.17;13.87;;;;;;;-0.67;58.70;99386.44;6213981;22;96687;-80
2024/01/17 01:13:39;;;;;;;30.50;13.87;;;;;;;-0.71;58.74;99385.59;6214985;22;97461;-80
2024/01/17 01:16:04;;;;;;;30.57;12.23;;;;;;;-0.72;58.67;99389.06;6162596;22;99454;-81
2024/01/17 01:18:30;;;;;;;27.97;13.70;;;;;;;-0.71;58.77;99380.44;6162997;22;96558;-81
2024/01/17 01:20:57;;;;;;;31.77;13.60;;;;;;;-0.72;58.41;99371.00;6162981;22;96810;-81
2024/01/17 01:23:24;;;;;;;30.37;13.43;;;;;;;-0.72;58.58;99371.00;6214398;22;98394;-81
2024/01/17 01:25:50;;;;;;;30.03;13.03;;;;;;;-0.72;58.05;99349.53;6188149;22;97563;-80
2024/01/17 01:28:16;;;;;;;29.17;13.27;;;;;;;-0.73;58.05;99355.53;6162994;22;96539;-81
2024/01/17 01:30:42;;;;;;;28.30;13.13;;;;;;;-0.66;57.67;99354.66;6188148;22;96746;-81
2024/01/17 01:33:07;;;;;;;28.53;12.20;;;;;;;-0.71;57.54;99354.66;6162511;22;101054;-81
2024/01/17 01:35:33;;;;;;;30.17;14.40;;;;;;;-0.70;57.94;99342.63;6162393;22;101222;-81
2024/01/17 01:37:59;;;;;;;35.30;13.73;;;;;;;-0.81;58.01;99339.28;6162159;22;96605;-81
2024/01/17 01:40:24;;;;;;;36.20;14.57;;;;;;;-0.81;57.62;99340.13;6214152;22;96548;-80
2024/01/17 01:42:50;;;;;;;35.13;14.37;;;;;;;-0.99;57.86;99333.31;6213244;22;97664;-81
2024/01/17 01:45:15;;;;;;;28.97;14.83;;;;;;;-1.00;58.18;99336.72;6162491;22;101220;-81
2024/01/17 01:47:41;;;;;;;31.83;15.27;;;;;;;-0.95;58.06;99340.16;6187537;22;96552;-81
2024/01/17 01:50:07;;;;;;;29.77;14.03;;;;;;;-0.99;57.98;99328.16;6188171;22;96669;-81
2024/01/17 01:52:34;;;;;;;30.47;13.97;;;;;;;-0.97;57.64;99330.72;6215722;22;97486;-81
2024/01/17 01:55:00;;;;;;;32.63;15.20;;;;;;;-1.14;57.43;99333.34;6167679;22;100952;-81
2024/01/17 01:57:26;;;;;;;32.27;15.27;;;;;;;-1.15;57.68;99332.47;6192910;22;96488;-81
2024/01/17 01:59:55;;;;;;;33.13;16.27;;;;;;;-1.23;58.07;99329.06;6218209;22;96758;-80
2024/01/17 02:02:23;;;;;;;35.13;15.27;;;;;;;-1.39;57.91;99337.69;6192773;22;101043;-84
2024/01/17 02:04:48;;;;;;;34.17;15.77;;;;;;;-1.35;58.20;99331.66;6167839;22;101282;-81
2024/01/17 02:07:14;;;;;;;34.33;16.47;;;;;;;-1.48;58.15;99314.53;6218790;22;96653;-81
2024/01/17 02:09:41;;;;;;;33.13;14.90;;;;;;;-1.45;58.01;99315.38;6218854;22;96670;-81
2024/01/17 02:12:07;;;;;;;37.30;16.27;;;;;;;-1.45;57.67;99325.69;6191955;22;97869;-81
2024/01/17 02:14:33;;;;;;;41.63;16.13;;;;;;;-1.53;57.76;99329.13;6192900;22;97434;-81
2024/01/17 02:16:59;;;;;;;39.63;15.33;;;;;;;-1.39;57.57;99325.66;6167630;22;96442;-81
2024/01/17 02:19:26;;;;;;;39.03;16.50;;;;;;;-1.42;57.05;99343.69;6193094;22;96778;-81
2024/01/17 02:21:51;;;;;;;34.60;15.87;;;;;;;-1.69;57.23;99297.38;6193040;22;98041;-82
2024/01/17 02:24:18;;;;;;;34.57;15.27;;;;;;;-1.66;57.22;99318.84;6167473;22;101574;-80
2024/01/17 02:26:44;;;;;;;35.27;15.80;;;;;;;-1.52;57.48;99346.28;6167471;22;96457;-80
2024/01/17 02:29:10;;;;;;;36.57;16.50;;;;;;;-1.62;57.37;99320.53;6167963;22;96835;-81
2024/01/17 02:31:36;;;;;;;35.27;15.03;;;;;;;-1.46;57.28;99335.97;6166956;22;101807;-80
2024/01/17 02:34:02;;;;;;;43.07;17.30;;;;;;;-1.56;56.84;99319.69;6218186;22;98246;-80
2024/01/17 02:36:28;;;;;;;43.17;19.67;;;;;;;-1.70;57.14;99323.97;6167037;22;96515;-81
2024/01/17 02:38:53;;;;;;;41.30;17.60;;;;;;;-1.85;57.15;99297.41;6192973;22;96769;-81
2024/01/17 02:41:19;;;;;;;40.93;17.67;;;;;;;-1.88;57.07;99312.84;6218180;22;97827;-81
2024/01/17 02:43:44;;;;;;;36.90;17.13;;;;;;;-1.84;57.61;99314.53;6167050;22;101650;-81
2024/01/17 02:46:10;;;;;;;39.37;17.33;;;;;;;-1.90;57.33;99300.81;6167715;22;96502;-80
2024/01/17 02:48:35;;;;;;;38.80;16.93;;;;;;;-2.00;57.25;99287.13;6192756;22;96762;-81
2024/01/17 02:51:01;;;;;;;47.20;19.40;;;;;;;-2.14;57.55;99302.53;6192418;22;101167;-81
2024/01/17 02:53:26;;;;;;;35.97;16.97;;;;;;;-2.21;57.85;99297.38;6167355;22;101031;-81
2024/01/17 02:55:51;;;;;;;44.80;19.13;;;;;;;-2.16;57.65;99272.53;6218534;22;96486;-80
2024/01/17 02:58:18;;;;;;;41.67;19.70;;;;;;;-2.07;57.83;99283.66;6192832;22;96701;-81
2024/01/17 03:00:44;;;;;;;40.83;19.53;;;;;;;-2.23;57.70;99286.25;6217859;22;97991;-81
2024/01/17 03:03:10;;;;;;;47.20;17.20;;;;;;;-2.32;57.66;99263.97;6217646;22;100993;-80
2024/01/17 03:05:37;;;;;;;53.87;20.37;;;;;;;-2.11;57.82;99297.38;6218403;22;96510;-81
2024/01/17 03:08:05;;;;;;;39.80;18.17;;;;;;;-2.12;57.78;99308.53;6218699;22;96695;-80
2024/01/17 03:10:31;;;;;;;40.33;18.30;;;;;;;-2.11;58.46;99307.69;6217821;22;97854;-80
2024/01/17 03:12:57;;;;;;;43.67;18.63;;;;;;;-2.18;57.93;99302.50;6191982;22;101345;-80
2024/01/17 03:15:23;;;;;;;38.97;17.77;;;;;;;-2.16;58.18;99300.81;6218485;22;96584;-82
2024/01/17 03:17:49;;;;;;;42.63;19.90;;;;;;;-2.46;58.84;99299.06;6193342;22;96802;-81
2024/01/17 03:20:15;;;;;;;34.83;17.10;;;;;;;-2.51;58.42;99304.19;6166824;22;101497;-80
2024/01/17 03:22:40;;;;;;;39.10;18.80;;;;;;;-2.77;58.82;99278.41;6192158;22;97942;-81
2024/01/17 03:25:07;;;;;;;47.03;18.87;;;;;;;-3.13;59.56;99264.59;6217501;22;96474;-81
2024/01/17 03:27:33;;;;;;;36.30;16.67;;;;;;;-3.13;60.26;99264.59;6192432;22;96781;-84
2024/01/17 03:29:58;;;;;;;42.53;19.10;;;;;;;-3.02;59.96;99288.59;6166705;22;101208;-80
2024/01/17 03:32:24;;;;;;;36.63;16.63;;;;;;;-2.98;60.17;99287.75;6217422;22;101679;-81
2024/01/17 03:34:51;;;;;;;49.27;18.60;;;;;;;-3.00;59.56;99289.44;6218026;22;96455;-80
2024/01/17 03:37:18;;;;;;;39.13;18.20;;;;;;;-2.99;59.38;99286.06;6167486;22;96772;-80
2024/01/17 03:39:44;;;;;;;44.13;16.93;;;;;;;-3.20;58.54;99232.91;6217694;22;97732;-81
2024/01/17 03:42:15;;;;;;;35.87;16.23;;;;;;;-3.27;59.42;99246.56;6192413;22;101560;-80
2024/01/17 03:44:42;;;;;;;32.13;15.13;;;;;;;-3.34;59.33;99254.25;6245541;22;96475;-80
2024/01/17 03:47:09;;;;;;;33.40;15.33;;;;;;;-3.41;59.02;99248.19;6192484;22;96793;-81
2024/01/17 03:49:34;;;;;;;33.23;15.50;;;;;;;-3.50;59.30;99264.41;6217066;22;97558;-81
2024/01/17 03:52:00;;;;;;;34.77;16.67;;;;;;;-3.84;59.99;99253.06;6191971;22;100998;-80
2024/01/17 03:54:25;;;;;;;30.00;14.63;;;;;;;-3.67;59.65;99261.72;6161638;22;96511;-80
2024/01/17 03:56:51;;;;;;;33.13;14.20;;;;;;;-3.51;59.55;99262.69;6212708;22;96903;-80
2024/01/17 03:59:16;;;;;;;30.17;14.30;;;;;;;-3.76;59.58;99222.34;6212421;22;97955;-80
2024/01/17 04:01:43;;;;;;;28.13;13.13;;;;;;;-3.88;59.69;99238.50;6187735;22;99305;-80
2024/01/17 04:04:09;;;;;;;30.80;14.33;;;;;;;-4.06;59.84;99211.03;6188813;22;96480;-81
2024/01/17 04:06:35;;;;;;;26.90;12.73;;;;;;;-3.95;60.71;99216.25;6188705;22;96806;-81
2024/01/17 04:09:00;;;;;;;30.23;12.87;;;;;;;-3.80;60.25;99226.59;6213651;22;97857;-80
2024/01/17 04:11:26;;;;;;;28.43;13.40;;;;;;;-3.66;60.31;99224.97;6188031;22;101542;-80
2024/01/17 04:13:51;;;;;;;28.93;13.90;;;;;;;-3.72;60.36;99226.66;6162599;22;96468;-80
2024/01/17 04:16:17;;;;;;;29.93;13.17;;;;;;;-3.83;60.17;99218.88;6214104;22;96830;-81
2024/01/17 04:18:43;;;;;;;26.37;13.27;;;;;;;-3.79;60.33;99206.94;6162997;22;101516;-80
2024/01/17 04:21:09;;;;;;;28.57;13.10;;;;;;;-3.79;59.88;99210.34;6187921;22;101209;-80
2024/01/17 04:23:35;;;;;;;28.20;13.40;;;;;;;-3.70;59.33;99212.13;6214055;22;96703;-80
2024/01/17 04:26:02;;;;;;;28.60;12.40;;;;;;;-3.75;59.92;99194.16;6163455;22;96829;-80
2024/01/17 04:28:27;;;;;;;29.80;13.37;;;;;;;-3.71;59.65;99180.47;6163011;22;101488;-82
2024/01/17 04:30:53;;;;;;;31.77;14.27;;;;;;;-3.79;59.08;99183.84;6214108;22;97959;-80
2024/01/17 04:33:18;;;;;;;32.43;13.50;;;;;;;-3.83;59.89;99157.34;6188466;22;96616;-81
2024/01/17 04:35:43;;;;;;;30.90;13.50;;;;;;;-3.66;59.27;99165.97;6188376;22;96919;-81
2024/01/17 04:38:09;;;;;;;32.27;13.63;;;;;;;-3.43;58.11;99188.31;6187651;22;98325;-81
2024/01/17 04:40:34;;;;;;;34.67;14.10;;;;;;;-3.33;58.55;99177.22;6187975;22;97594;-80
2024/01/17 04:43:00;;;;;;;27.93;14.17;;;;;;;-3.20;58.31;99178.13;6188260;22;96507;-81
2024/01/17 04:45:25;;;;;;;36.03;14.80;;;;;;;-3.31;57.76;99166.97;6214112;22;96752;-81
2024/01/17 04:47:51;;;;;;;32.53;13.87;;;;;;;-3.29;58.29;99178.94;6187996;22;100984;-80
2024/01/17 04:50:16;;;;;;;36.53;15.30;;;;;;;-3.33;57.73;99173.81;6162663;22;101190;-80
2024/01/17 04:52:42;;;;;;;36.80;15.57;;;;;;;-3.22;57.56;99185.81;6192804;22;96654;-80
2024/01/17 04:55:08;;;;;;;31.43;14.80;;;;;;;-3.19;57.10;99184.97;6219510;22;96695;-80
2024/01/17 04:57:35;;;;;;;31.47;14.60;;;;;;;-3.50;57.88;99153.22;6218662;22;97755;-81
2024/01/17 05:00:01;;;;;;;38.37;15.57;;;;;;;-3.64;57.93;99122.38;6193050;22;97714;-80
2024/01/17 05:02:26;;;;;;;32.37;16.07;;;;;;;-3.42;57.42;99141.28;6192899;22;96484;-81
2024/01/17 05:04:52;;;;;;;36.13;16.37;;;;;;;-3.10;56.72;99161.06;6218692;22;96815;-80
2024/01/17 05:07:17;;;;;;;34.33;15.70;;;;;;;-3.43;56.98;99125.03;6167818;22;101091;-80
2024/01/17 05:09:43;;;;;;;40.90;16.50;;;;;;;-3.56;57.76;99124.97;6192676;22;100444;-81
2024/01/17 05:12:08;;;;;;;36.70;15.33;;;;;;;-3.50;57.27;99145.50;6218873;22;96452;-81
2024/01/17 05:14:34;;;;;;;37.53;16.23;;;;;;;-3.73;57.05;99106.94;6218743;22;96645;-84
2024/01/17 05:17:01;;;;;;;40.10;16.07;;;;;;;-3.58;57.80;99137.78;6167224;22;99503;-81
2024/01/17 05:19:26;;;;;;;38.23;17.20;;;;;;;-3.74;58.32;99100.97;6193450;22;101118;-80
2024/01/17 05:21:52;;;;;;;39.80;17.90;;;;;;;-4.02;58.34;99091.44;6167852;22;96492;-81
2024/01/17 05:24:17;;;;;;;37.03;17.30;;;;;;;-3.89;57.95;99124.84;6193438;22;96737;-81
2024/01/17 05:26:43;;;;;;;43.57;19.13;;;;;;;-4.07;57.79;99064.91;6192229;22;101311;-80
2024/01/17 05:29:09;;;;;;;37.73;17.70;;;;;;;-3.61;57.65;99119.81;6218181;22;101117;-80
2024/01/17 05:31:35;;;;;;;39.77;17.30;;;;;;;-3.88;57.73;99085.50;6168101;22;97198;-82
2024/01/17 05:34:00;;;;;;;44.47;18.30;;;;;;;-3.76;57.05;99091.53;6246193;22;96374;-81
2024/01/17 05:36:26;;;;;;;41.83;18.83;;;;;;;-3.72;58.02;99114.66;6245778;22;97763;-82
2024/01/17 05:38:51;;;;;;;44.93;19.10;;;;;;;-3.69;57.57;99108.69;6192438;22;99373;-81
2024/01/17 05:41:17;;;;;;;44.17;19.90;;;;;;;-3.93;57.84;99071.84;6168014;22;96680;-80
2024/01/17 05:43:42;;;;;;;43.47;18.37;;;;;;;-3.75;57.82;99104.38;6219162;22;96759;-81
2024/01/17 05:46:09;;;;;;;45.20;19.40;;;;;;;-3.74;57.58;99098.41;6166939;22;101031;-81
2024/01/17 05:48:34;;;;;;;45.90;19.90;;;;;;;-3.59;57.08;99107.00;6193101;22;98416;-81
2024/01/17 05:50:59;;;;;;;43.47;19.23;;;;;;;-3.63;57.23;99085.63;6166986;22;96459;-81
2024/01/17 05:53:25;;;;;;;46.20;19.93;;;;;;;-3.60;57.70;99090.75;6157357;22;96758;-81
2024/01/17 05:55:52;;;;;;;52.63;22.03;;;;;;;-3.84;57.65;99090.66;6182782;22;98467;-80
2024/01/17 05:58:18;;;;;;;50.37;22.23;;;;;;;-4.13;59.17;99092.25;6157395;22;101067;-81
2024/01/17 06:00:43;;;;;;;47.40;20.47;;;;;;;-4.04;58.82;99087.97;6157443;22;96560;-81
2024/01/17 06:03:09;;;;;;;52.90;21.93;;;;;;;-4.26;60.09;99087.03;6157847;22;96788;-79
2024/01/17 06:05:35;;;;;;;59.23;22.90;;;;;;;-4.27;59.70;99106.69;6131894;22;100152;-81
2024/01/17 06:08:00;;;;;;;55.27;23.57;;;;;;;-4.34;60.11;99116.00;6132636;22;101380;-80
2024/01/17 06:10:28;;;;;;;56.17;21.83;;;;;;;-4.21;60.06;99100.72;6132482;22;96579;-80
2024/01/17 06:12:53;;;;;;;54.57;23.17;;;;;;;-4.25;60.46;99099.84;6132775;22;96744;-81
2024/01/17 06:15:19;;;;;;;54.43;23.43;;;;;;;-3.96;59.91;99096.56;6182025;22;97986;-81
2024/01/17 06:17:44;;;;;;;48.47;20.10;;;;;;;-3.90;59.31;99097.50;6182458;22;97868;-82
2024/01/17 06:20:13;;;;;;;44.13;19.90;;;;;;;-3.97;59.08;99092.31;6157445;22;96576;-80
2024/01/17 06:22:39;;;;;;;50.20;21.53;;;;;;;-3.92;59.91;99104.31;6131692;22;96832;-81
2024/01/17 06:25:06;;;;;;;50.83;22.30;;;;;;;-4.09;59.66;99093.09;6182121;22;98270;-80
2024/01/17 06:27:31;;;;;;;54.17;22.03;;;;;;;-4.07;59.98;99093.97;6131755;22;101313;-81
2024/01/17 06:29:57;;;;;;;58.10;23.37;;;;;;;-4.32;59.57;99082.72;6182769;22;96531;-81
2024/01/17 06:32:22;;;;;;;57.30;23.97;;;;;;;-4.23;59.52;99069.09;6132122;22;96781;-82
2024/01/17 06:34:48;;;;;;;51.50;24.17;;;;;;;-4.61;59.98;99026.19;6157228;22;98074;-80
2024/01/17 06:37:13;;;;;;;50.10;21.77;;;;;;;-4.60;60.09;99069.72;6157177;22;97929;-81
2024/01/17 06:39:39;;;;;;;58.23;24.77;;;;;;;-4.55;60.40;99082.56;6131815;22;96508;-80
2024/01/17 06:42:05;;;;;;;62.33;26.13;;;;;;;-4.59;60.93;99076.56;6182544;22;96863;-82
2024/01/17 06:44:30;;;;;;;49.57;22.10;;;;;;;-4.84;60.60;99067.00;6157208;22;97473;-81
2024/01/17 06:46:57;;;;;;;59.07;24.40;;;;;;;-4.52;60.07;99080.03;6156962;22;101269;-82
2024/01/17 06:49:23;;;;;;;55.43;24.73;;;;;;;-4.69;60.42;99035.53;6182785;22;96514;-81
2024/01/17 06:51:48;;;;;;;53.57;24.40;;;;;;;-4.59;60.53;99055.25;6132406;22;96878;-81
2024/01/17 06:54:15;;;;;;;50.50;22.63;;;;;;;-4.66;60.61;99035.53;6180721;22;101423;-80
2024/01/17 06:56:40;;;;;;;60.27;23.50;;;;;;;-4.32;60.07;99060.50;6162428;22;100948;-80
2024/01/17 06:59:06;;;;;;;56.43;23.27;;;;;;;-4.27;59.98;99058.00;6213167;22;96487;-81
2024/01/17 07:01:31;;;;;;;55.17;25.17;;;;;;;-4.35;60.42;99019.50;6187593;22;96856;-81
2024/01/17 07:03:57;;;;;;;53.77;22.20;;;;;;;-4.28;59.57;99022.09;6186668;22;101606;-81
2024/01/17 07:06:22;;;;;;;53.93;22.87;;;;;;;-4.53;60.22;99009.16;6187411;22;97763;-81
2024/01/17 07:08:48;;;;;;;51.60;20.00;;;;;;;-4.63;60.30;98997.13;6162274;22;96457;-81
2024/01/17 07:11:14;;;;;;;45.93;22.10;;;;;;;-4.19;60.07;99020.44;6213207;22;96775;-82
2024/01/17 07:13:40;;;;;;;50.70;23.20;;;;;;;-4.49;59.79;98994.66;6187547;22;97909;-81
2024/01/17 07:16:06;;;;;;;47.10;20.27;;;;;;;-4.32;59.76;99005.84;6212730;22;100741;-83
2024/01/17 07:18:33;;;;;;;47.53;22.27;;;;;;;-4.25;59.99;98997.31;6187411;22;96485;-80
2024/01/17 07:20:58;;;;;;;51.30;23.47;;;;;;;-4.56;59.89;98945.97;6187932;22;96764;-80
2024/01/17 07:23:24;;;;;;;41.97;19.43;;;;;;;-4.07;59.42;99008.50;6187171;22;100873;-81
2024/01/17 07:25:49;;;;;;;46.50;20.17;;;;;;;-4.18;59.69;98996.53;6187116;22;101511;-81
2024/01/17 07:28:15;;;;;;;52.73;21.47;;;;;;;-4.39;59.16;98970.81;6212433;22;96513;-82
2024/01/17 07:30:41;;;;;;;50.03;21.23;;;;;;;-4.32;59.93;99013.53;6212871;22;96730;-82
2024/01/17 07:33:07;;;;;;;49.20;21.70;;;;;;;-4.47;60.71;98993.81;6161624;22;101260;-81
2024/01/17 07:35:33;;;;;;;46.90;20.83;;;;;;;-4.24;60.16;99005.91;6187464;22;101571;-81
2024/01/17 07:37:59;;;;;;;50.07;23.37;;;;;;;-4.24;60.05;98982.84;6188446;22;96504;-81
2024/01/17 07:40:24;;;;;;;49.73;21.07;;;;;;;-4.23;59.50;98964.88;6214443;22;96751;-81
2024/01/17 07:42:51;;;;;;;49.60;22.43;;;;;;;-4.19;59.90;98955.50;6162937;22;101529;-83
2024/01/17 07:45:17;;;;;;;48.70;21.40;;;;;;;-3.90;59.13;98971.84;6214022;22;98393;-81
2024/01/17 07:47:43;;;;;;;49.53;22.23;;;;;;;-3.80;59.46;98956.47;6163080;22;96499;-81
2024/01/17 07:50:09;;;;;;;45.20;19.83;;;;;;;-3.85;58.75;98930.81;6188370;22;96848;-81
2024/01/17 07:52:35;;;;;;;88.67;37.53;;;;;;;-3.84;59.07;98963.28;6165090;22;101408;-81
2024/01/17 07:55:00;;;;;;;66.50;30.83;;;;;;;-4.13;59.08;98919.63;6167896;22;101146;-83
2024/01/17 07:57:26;;;;;;;47.70;21.50;;;;;;;-3.98;58.69;98914.56;6219080;22;96575;-82
2024/01/17 07:59:51;;;;;;;50.47;23.20;;;;;;;-3.89;59.33;98912.00;6168306;22;96747;-80
2024/01/17 08:02:17;;;;;;;49.30;22.00;;;;;;;-3.56;58.67;98930.84;6193308;22;101413;-81
2024/01/17 08:04:43;;;;;;;47.33;22.30;;;;;;;-3.60;58.85;98918.88;6192206;22;100401;-81
2024/01/17 08:07:08;;;;;;;46.30;20.37;;;;;;;-3.10;58.07;98922.28;6193942;22;96457;-80
2024/01/17 08:09:34;;;;;;;48.27;22.63;;;;;;;-3.29;58.39;98896.63;6194143;22;96696;-81
2024/01/17 08:12:00;;;;;;;44.23;20.73;;;;;;;-3.04;57.48;98882.03;6192652;22;101518;-80
2024/01/17 08:14:25;;;;;;;43.23;19.93;;;;;;;-2.83;57.24;98887.97;6218783;22;97605;-80
2024/01/17 08:16:51;;;;;;;41.13;19.43;;;;;;;-2.78;57.55;98886.25;6192354;22;96529;-81
2024/01/17 08:19:17;;;;;;;36.83;18.73;;;;;;;-2.90;57.56;98873.47;6166989;22;96810;-80
2024/01/17 08:21:46;;;;;;;39.73;19.23;;;;;;;-2.58;57.19;98883.63;6193313;22;97961;-81
2024/01/17 08:24:12;;;;;;;39.20;17.27;;;;;;;-2.20;56.54;98883.44;6167209;22;101301;-81
2024/01/17 08:26:42;;;;;;;39.37;19.20;;;;;;;-2.44;57.11;98845.00;6168306;22;96489;-80
2024/01/17 08:29:08;;;;;;;39.93;19.50;;;;;;;-2.08;56.07;98846.50;6192908;22;96831;-81
2024/01/17 08:31:33;;;;;;;37.57;20.87;;;;;;;-1.71;55.37;98836.81;6192958;22;97880;-81
2024/01/17 08:33:59;;;;;;;45.23;19.87;;;;;;;-1.91;55.62;98824.09;6218703;22;101522;-80
2024/01/17 08:36:28;;;;;;;48.93;21.70;;;;;;;-1.84;54.87;98825.75;6167991;22;96580;-80
2024/01/17 08:38:54;;;;;;;53.67;26.00;;;;;;;-1.74;54.80;98816.25;6168061;22;96909;-81
2024/01/17 08:41:19;;;;;;;53.53;23.63;;;;;;;-0.91;53.77;98852.31;6217893;22;97875;-81
2024/01/17 08:43:45;;;;;;;50.10;24.00;;;;;;;-0.96;53.45;98842.94;6192727;22;101253;-81
2024/01/17 08:46:13;;;;;;;47.57;24.20;;;;;;;-0.95;53.37;98811.16;6218584;22;96593;-82
2024/01/17 08:48:39;;;;;;;45.93;21.80;;;;;;;-0.63;52.41;98812.50;6193747;22;96820;-80
2024/01/17 08:51:07;;;;;;;41.47;20.90;;;;;;;-0.25;52.47;98814.56;6245794;22;97970;-81
2024/01/17 08:53:33;;;;;;;43.70;22.10;;;;;;;0.20;50.95;98832.78;6192182;22;100609;-81
2024/01/17 08:56:00;;;;;;;39.30;20.07;;;;;;;0.12;51.48;98824.34;6218856;22;96573;-81
2024/01/17 08:58:25;;;;;;;48.87;22.43;;;;;;;0.24;51.14;98825.88;6193748;22;96861;-80
2024/01/17 09:00:51;;;;;;;52.30;24.87;;;;;;;-0.28;52.60;98792.25;6192849;22;101144;-82
2024/01/17 09:03:17;;;;;;;59.17;26.93;;;;;;;-0.32;52.06;98769.09;6217892;22;97805;-82
2024/01/17 09:05:43;;;;;;;59.07;27.30;;;;;;;0.35;50.85;98783.50;6192650;22;96489;-80
2024/01/17 09:08:09;;;;;;;48.77;25.07;;;;;;;0.85;50.11;98798.97;6218876;22;96786;-81
2024/01/17 09:10:34;;;;;;;51.10;24.13;;;;;;;0.73;50.15;98734.59;6192716;22;97590;-80
2024/01/17 09:13:00;;;;;;;41.87;22.17;;;;;;;0.92;49.61;98779.88;6192865;22;97575;-80
2024/01/17 09:15:25;;;;;;;50.87;24.13;;;;;;;1.19;49.19;98775.88;6168153;22;96500;-82
2024/01/17 09:17:51;;;;;;;45.90;23.03;;;;;;;1.36;49.52;98784.13;6246311;22;96642;-82
2024/01/17 09:20:17;;;;;;;46.83;23.57;;;;;;;0.67;49.89;98780.34;6167609;22;101122;-81
2024/01/17 09:22:42;;;;;;;46.27;23.47;;;;;;;1.39;48.86;98762.53;6218799;22;97777;-81
2024/01/17 09:25:10;;;;;;;41.90;21.63;;;;;;;1.40;49.55;98763.38;6193445;22;96544;-81
2024/01/17 09:27:36;;;;;;;49.60;23.70;;;;;;;1.40;49.05;98743.56;6193851;22;96701;-81
2024/01/17 09:30:02;;;;;;;45.43;22.90;;;;;;;1.26;49.43;98741.28;6217649;22;97875;-80
2024/01/17 09:32:28;;;;;;;46.10;25.23;;;;;;;1.61;47.95;98706.03;6218470;22;97721;-82
2024/01/17 09:34:53;;;;;;;46.63;23.37;;;;;;;2.03;47.79;98747.25;6218695;22;96494;-81
2024/01/17 09:37:19;;;;;;;48.93;25.60;;;;;;;1.68;47.53;98730.84;6167651;22;96718;-80
2024/01/17 09:39:45;;;;;;;45.87;23.83;;;;;;;1.83;47.16;98732.22;6192675;22;100960;-81
2024/01/17 09:42:13;;;;;;;46.73;23.70;;;;;;;1.89;46.89;98726.03;6167290;22;101026;-81
2024/01/17 09:44:39;;;;;;;44.47;24.17;;;;;;;1.76;46.69;98736.69;6193026;22;96504;-81
2024/01/17 09:47:05;;;;;;;45.63;24.50;;;;;;;1.16;47.56;98715.66;6219063;22;96677;-81
2024/01/17 09:49:33;;;;;;;46.87;23.73;;;;;;;0.78;48.33;98681.13;6217823;22;101415;-81
2024/01/17 09:52:05;;;;;;;43.40;23.40;;;;;;;1.31;48.25;98676.56;6192550;22;101823;-81
2024/01/17 09:54:45;;;;;;;43.90;24.50;;;;;;;1.03;47.99;98648.72;6161890;22;97039;-83
2024/01/17 09:57:22;;;;;;;46.83;25.00;;;;;;;0.21;49.56;98677.06;6187990;22;96510;-84
2024/01/17 09:59:56;;;;;;;49.10;23.53;;;;;;;-0.33;51.21;98679.72;6162634;22;100923;-81
2024/01/17 10:02:22;;;;;;;47.40;25.53;;;;;;;0.08;51.01;98671.28;6187209;22;100762;-81
2024/01/17 10:04:49;;;;;;;42.93;21.23;;;;;;;0.30;50.47;98669.16;6187959;22;96539;-80
2024/01/17 10:07:14;;;;;;;45.90;21.97;;;;;;;-0.14;51.14;98644.16;6162398;22;96729;-80
2024/01/17 10:09:40;;;;;;;48.17;22.93;;;;;;;-0.05;51.41;98644.84;6187519;22;101083;-80
2024/01/17 10:12:07;;;;;;;46.90;22.70;;;;;;;-0.06;51.01;98657.75;6187930;22;97972;-81
2024/01/17 10:14:32;;;;;;;52.17;23.10;;;;;;;-0.61;51.98;98640.63;6187831;22;96438;-81
2024/01/17 10:16:58;;;;;;;44.27;22.90;;;;;;;-0.82;53.09;98646.97;6213530;22;96801;-81
2024/01/17 10:19:24;;;;;;;43.83;22.27;;;;;;;-0.77;52.87;98625.41;6186928;22;101356;-82
2024/01/17 10:21:50;;;;;;;38.93;19.33;;;;;;;-0.62;52.56;98644.94;6187814;22;97502;-81
2024/01/17 10:24:15;;;;;;;44.40;21.00;;;;;;;-0.94;53.32;98633.38;6213549;22;96447;-81
2024/01/17 10:26:42;;;;;;;44.73;20.57;;;;;;;-0.92;53.26;98616.19;6213719;22;96738;-83
2024/01/17 10:29:13;;;;;;;39.57;21.60;;;;;;;-0.79;53.46;98624.56;6212760;22;101564;-81
2024/01/17 10:31:39;;;;;;;39.03;19.77;;;;;;;-0.84;53.60;98622.94;6162549;22;101126;-81
2024/01/17 10:34:05;;;;;;;46.30;21.73;;;;;;;-0.93;53.37;98617.06;6187774;22;96574;-81
2024/01/17 10:36:31;;;;;;;45.33;20.60;;;;;;;-0.75;53.26;98595.31;6213525;22;96787;-80
2024/01/17 10:39:06;;;;;;;44.73;21.50;;;;;;;-0.79;53.38;98603.13;6187408;22;101904;-82
2024/01/17 10:41:32;;;;;;;43.87;21.57;;;;;;;-0.47;52.81;98582.84;6213064;22;97785;-81
2024/01/17 10:44:04;;;;;;;46.63;20.83;;;;;;;-0.44;53.06;98563.88;6187047;22;96511;-81
2024/01/17 10:46:30;;;;;;;43.75;21.58;;;;;;;-0.19;52.52;98584.06;6187768;22;96706;-81
2024/01/17 10:48:58;;;;;;;44.23;20.43;;;;;;;-0.54;52.77;98547.72;6186726;22;101398;-81
2024/01/17 10:51:24;;;;;;;46.23;21.10;;;;;;;-0.41;53.10;98561.22;6187251;22;101331;-82
2024/01/17 10:53:52;;;;;;;47.60;21.93;;;;;;;-0.53;53.23;98548.56;6187316;22;96790;-80
2024/01/17 10:56:19;;;;;;;49.10;25.30;;;;;;;-0.55;53.02;98538.31;6187451;22;96818;-81
2024/01/17 10:58:53;;;;;;;48.23;23.30;;;;;;;-0.38;53.25;98556.03;6187402;22;98947;-80
2024/01/17 11:01:31;;;;;;;53.23;24.83;;;;;;;-0.21;53.39;98554.88;6162644;22;101324;-82
2024/01/17 11:04:01;;;;;;;52.53;25.13;;;;;;;-0.35;53.12;98555.13;6162468;22;96629;-81
2024/01/17 11:06:26;;;;;;;48.63;23.27;;;;;;;-0.34;53.68;98547.38;6161994;22;96769;-80
2024/01/17 11:08:52;;;;;;;51.27;24.90;;;;;;;-0.28;53.70;98539.50;6161191;22;100840;-82
2024/01/17 11:11:19;;;;;;;49.50;22.33;;;;;;;-0.56;53.27;98460.97;6212676;22;98067;-81